15  °C
Temperature
-1  °C
  Dewpoint
   Humidity
Temp | Dewpoint | Humidity
35  km/h
Wind Speed
22  mph
Wind Speed
19  kts
Wind Speed
280°
Due West

Wind Speed
Clear
Conditions
Pressure 1022.92 (hPa) - 30.21 (in)
Visibility 6.2 (mi) - 10.0 (km)

Current Conditions
YWLM
Location 6km (3.2mi)
Metar :YWLM 200100Z 28019KT CAVOK 15/M01 Q1023 FM0100 MOD TURB BLW 5000FT TL0300
Tue 20th August 12:00 pm

Airport
  Metar Aviation API Data Provided by https://www.checkwx.com/ CSS/SVG/PHP scripts by weather34.com © 2015-2019